Portada
METAR-TAF:

METAR-TAF

Aeroports :

Aeroport Internacional de Xangai-Pudong

Xangai-Pudong, Xina

latitud: 31-07N, longitud: 121-46E, altitud: 4 m

Observació

L'informe es va fer fa 20 minuts, a les 23:30 UTC
Vent 6 kt del Nord
Temperatura 17°C
Humitat 94%
Pressió 1022 hPa
Visibilitat: 7000 m
Núvols disperses a una alçada de 1600 ft

METAR: ZSPD 212330Z 01003MPS 7000 SCT016 17/16 Q1022 NOSIG

Hora: 07:50 (23:50 UTC)

Pronòstic

L'informe es va fer fa 2 hores i 35 minuts, a les 21:15 UTC
Pronòstic vàlid del 22 a les 00 UTC al 22 a les 24 UTC
Vent 8 kt del Est/Nord-Est
Visibilitat: 5000 m
Cel ennuvolat a una alçada de 2000 ft
boirina
Evolucionant progressivament
l' 22 a les 08 UTC al 22 a les 10 UTC
Vent 8 kt del Est

TAF: ZSPD 212115Z 2200/2224 06004MPS 5000 BR BKN020 TX21/2206Z TN15/2221Z BECMG 2208/2210 10004MPS

Observacions i pronòstics meteorològics de més de 4000 aeroports (METAR i TAF).

Les estacions disponibles són els punts grocs i vermells al mapa.

Posi el ratolí al punt desitjat per veure el nom de l'estació.

Feu clic per veure les observacions i els pronòstics meteorològics.

Per canviar el mapa: feu clic els botons verds amb una creu de color negre per apropar; al botó verd amb un guió per allunyar la imatge; o en les fletxes verdes per a mapes adjacents.


METAR-TAF: